Главная страница
METAR-TAF:

METAR-TAF

Аэропорты :

Сундсвалль-Härnösand, Швеция

широта: 62-32N, долгота: 017-27E, высота над уровнем моря: 4 м

Текущие метеонаблюдения

Эта сводка был подготовлена 19 минут назад, в 06:20 UTC
Ветер 4 Узел от юго-юго-восточный
Температура 10°C
Влажность 82%
Давление 999 hPa
Видимость 10 км и более
Нет облачности ниже 1500 м, и нет кучево-дождевой облачности

METAR: ESNN 210620Z 15004KT CAVOK 10/07 Q0999

Время: 08:39 (06:39 UTC)

Прогноз

Эта сводка был подготовлена 1 час и 9 минут назад, в 05:30 UTC
Прогноз действительный с 21-го 06 UTC до 21-го 15 UTC
Ветер 6 Узел от юго-юго-восточный
Видимость 10 км и более
Нет облачности ниже 1500 м, и нет кучево-дождевой облачности
временами
С 21-го 10 UTC до 21-го 14 UTC
Рассеянная облачность на высоте 800 фута
дождь

TAF: ESNN 210530Z 2106/2115 16006KT CAVOK TEMPO 2110/2114 RA BKN008

Метеонаблюдения и прогнозы для более 4000 аэропортов (сводки METAR и TAF).

Имеющиеся станции представлены на карте желтыми и красными точками.

Чтобы увидеть название станции, наведите на нее мышь.

Затем щелкните, чтобы увидеть метеонаблюдения и метеопрогнозы.

Управление картой: чтобы увеличить масштаб, щелкните зеленые кнопки с черным крестиком; чтобы уменьшить масштаб, щелкните зеленую кнопку с тире; для просмотра соседних карт щелкайте зеленые стрелки.


METAR-TAF: